Terminal Aerodrome Forecast
Issued by NWS

Home | Current Version | Previous Version | Text Only | Print | Product List | Glossary On
Versions: 1 2 3 4 5 6 7 8 9 10 11 12 13 14 15 16 17 18 19 20 21 22 23 24 25 26 27 28 29 30 31 32 33 34 35 36 37 38
672
FTUS41 KBOX 101138 AAG
TAFBAF
TAF AMD
KBAF 101138Z 1012/1112 18010KT P6SM OVC015
     FM101500 20007KT 4SM BR OVC020
     FM102100 27008KT 5SM -RA OVC015
     FM102300 30009KT P6SM VCSH OVC025
     FM110500 30005KT 2SM BR VCSH OVC045
     FM110900 31004KT 1SM -SN BR OVC025=

USA.gov is the U.S. government's official web portal to all federal, state and local government web resources and services.